Terminal Aerodrome Forecast
Issued by NWS Mt. Holly, NJ

Current Version | Previous Version | Text Only | Print | Product List | Glossary On
Versions: 1 2 3 4 5 6 7 8 9 10 11 12 13 14 15 16 17 18 19 20
000
FTUS41 KPHI 120500
TAFABE
TAF
KABE 120524Z 1206/1306 VRB03KT P6SM SCT250
      TEMPO 1209/1211 4SM BR
     FM121500 21008KT P6SM SCT050
     FM130000 18006KT P6SM SCT050=

USA.gov is the U.S. government's official web portal to all federal, state and local government web resources and services.